Buoy 46762

sailwx.info

Track history (hours):
 
Tides and Currents Weather Stations Pressure Air Temp Water Temp Dewpoint Dewpoint Depression Visibility Wind Speed Wind Dir Waves Ship Positions

Drifting buoy 46762

Last reported at 2015-Apr-02 05:00 UTC. Time now 2015-Apr-02 07:56 UTC.
Position N 57°10' W 149°47'.

Barometer 1001.1 mb
Water temperature 6.0 ° C

Date/timePositionNaut miles runAvg speedWind from/ knotsBaromVisibWave heightAir tempDewpointWater temp
2015-Apr-02 05:00N 57°10' W 149°47'4 1.3 1001.1 6.0
2015-Apr-02 02:00N 57°07' W 149°51'13 0.6 1000.1 6.0
2015-Apr-01 05:00N 56°55' W 149°43'0 0.2 1006.6 6.0
2015-Apr-01 04:00N 56°55' W 149°43'0 0.0 1006.4 6.0
2015-Apr-01 03:00N 56°55' W 149°43'3 1.1 1006.2 6.0
2015-Apr-01 00:00N 56°52' W 149°45'2 1.6 1006.0 6.0
2015-Mar-31 23:00N 56°52' W 149°42'2 1.7 1005.7 6.0
2015-Mar-31 22:00N 56°51' W 149°40'4 1.3 1005.2 6.0
2015-Mar-31 19:00N 56°50' W 149°33'0 0.3 1003.6 6.0
2015-Mar-31 18:00N 56°50' W 149°34'0 0.0 1003.2 6.0
2015-Mar-31 17:00N 56°50' W 149°34'4 1.2 1002.9 6.0
2015-Mar-31 14:00N 56°48' W 149°28'10 1.1 1002.3 6.0
2015-Mar-31 05:00N 56°44' W 149°11'0 0.1 1000.2 6.0
2015-Mar-31 04:00N 56°44' W 149°11'2 2.5 999.9 6.1
2015-Mar-31 03:00N 56°43' W 149°07'1 1.5 999.7 6.1
2015-Mar-31 02:00N 56°42' W 149°05'0 0.0 999.7 6.1
2015-Mar-31 01:00N 56°42' W 149°05'2 2.4 999.7 6.2
2015-Mar-31 00:00N 56°43' W 149°01'1 0.7 999.9 6.1
2015-Mar-30 23:00N 56°42' W 148°60'3 3.0 999.9 6.0
2015-Mar-30 22:00N 56°42' W 148°54'0 0.0 999.9 6.0
2015-Mar-30 21:00N 56°42' W 148°54'3 2.7 999.7 6.0
2015-Mar-30 20:00N 56°40' W 148°52'6 1.8 999.5 6.0
2015-Mar-30 17:00N 56°40' W 148°42'2 2.4 999.2 6.0
2015-Mar-30 16:00N 56°41' W 148°38'0 0.4 999.2 6.0
2015-Mar-30 15:00N 56°41' W 148°38'2 2.4 999.2 6.0
2015-Mar-30 14:00N 56°41' W 148°34'1 1.2 999.3 6.0
2015-Mar-30 13:00N 56°42' W 148°32'8 8.5 999.3 6.0
2015-Mar-30 12:00N 56°40' W 148°17'0 0.0 999.4 6.0
2015-Mar-30 11:00N 56°40' W 148°17'0 0.0 999.7 6.0
2015-Mar-30 08:00N 56°40' W 148°17'0 0.0 998.9 6.0
2015-Mar-30 07:00N 56°40' W 148°17'2 1.7 998.6 6.0
2015-Mar-30 06:00N 56°40' W 148°14'1 0.7 998.4 6.0
2015-Mar-30 05:00N 56°39' W 148°13'1 0.8 998.1 6.0
2015-Mar-30 04:00N 56°39' W 148°12'2 2.2 997.6 6.0
2015-Mar-30 03:00N 56°39' W 148°08'3 1.5 997.3 6.0
2015-Mar-30 01:00N 56°39' W 148°02'1 1.0 996.9 6.0
2015-Mar-30 00:00N 56°39' W 148°04'3 3.1 996.5 6.0
2015-Mar-29 23:00N 56°40' W 147°59'1 1.4 996.0 6.0
2015-Mar-29 22:00N 56°40' W 147°56'0 0.0 995.4 6.0
2015-Mar-29 21:00N 56°40' W 147°56'2 0.5 994.7 5.9
2015-Mar-29 17:00N 56°39' W 147°52'2 0.9 990.7 5.9
2015-Mar-29 15:00N 56°41' W 147°50'3 3.1 988.9 5.8
2015-Mar-29 14:00N 56°40' W 147°45'0 0.0 988.2 5.8
2015-Mar-29 13:00N 56°40' W 147°45'0 0.0 987.5 5.8
2015-Mar-29 12:00N 56°40' W 147°45'0 0.3 987.0 5.8
2015-Mar-29 11:00N 56°40' W 147°46'4 4.1 986.7 5.8
2015-Mar-29 10:00N 56°38' W 147°39'0 0.0 986.5 5.8
2015-Mar-29 08:00N 56°38' W 147°39'2 0.6 985.8 5.8
2015-Mar-29 05:00N 56°40' W 147°36'1 1.1 985.5 5.8
2015-Mar-29 04:00N 56°40' W 147°34'1 0.9 985.3 5.8
2015-Mar-29 03:00N 56°39' W 147°35'2 1.5 985.2 5.8
2015-Mar-29 02:00N 56°40' W 147°34'1 0.5 985.4 5.8
2015-Mar-29 00:00N 56°40' W 147°32'2 0.9 986.1 5.8
2015-Mar-28 22:00N 56°40' W 147°29'1 1.2 987.3 5.8
2015-Mar-28 21:00N 56°41' W 147°27'0 0.0 987.6 5.8
2015-Mar-28 20:00N 56°41' W 147°27'1 0.8 987.8 5.8
2015-Mar-28 19:00N 56°41' W 147°26'1 0.4 987.9 5.7
2015-Mar-28 17:00N 56°41' W 147°24'0 0.0 988.4 5.7
2015-Mar-28 16:00N 56°41' W 147°24'5 2.4 988.3 5.7
2015-Mar-28 14:00N 56°40' W 147°15'0 0.0 988.8 5.7
2015-Mar-28 13:00N 56°40' W 147°15'0 0.0 989.3 5.7
2015-Mar-28 11:00N 56°40' W 147°15'0 0.0 990.5 5.7
2015-Mar-28 10:00N 56°40' W 147°15'1 1.1 991.1 5.7
2015-Mar-28 09:00N 56°40' W 147°17'0 0.0 991.8 5.7
2015-Mar-28 07:00N 56°40' W 147°17'1 0.8 993.4 5.7
2015-Mar-28 06:00N 56°40' W 147°16'2 1.5 994.0 5.7
2015-Mar-28 05:00N 56°42' W 147°17'3 2.9 995.0 5.7
2015-Mar-28 04:00N 56°40' W 147°13'2 1.2 995.7 5.7
2015-Mar-28 02:00N 56°41' W 147°17'0 0.0 997.7 5.8
2015-Mar-28 01:00N 56°41' W 147°17'0 0.1 998.8 5.8
2015-Mar-28 00:00N 56°41' W 147°17'2 1.1 1000.0 5.8
2015-Mar-27 22:00N 56°42' W 147°13'1 1.4 1001.8 5.7
2015-Mar-27 21:00N 56°40' W 147°14'1 0.3 1002.1 5.7
2015-Mar-27 19:00N 56°40' W 147°13'2 0.8 1002.8 5.7
2015-Mar-27 17:00N 56°42' W 147°13'1 1.0 1002.9 5.7
2015-Mar-27 16:00N 56°41' W 147°11'1 0.3 1003.0 5.7
2015-Mar-27 14:00N 56°41' W 147°10'1 0.8 1003.0 5.7
2015-Mar-27 13:00N 56°41' W 147°12'0 0.0 1002.9 5.7
2015-Mar-27 12:00N 56°41' W 147°12'0 0.0 1003.0 5.7
2015-Mar-27 11:00N 56°41' W 147°12'1 1.1 1003.1 5.7
2015-Mar-27 10:00N 56°41' W 147°10'0 0.0 1003.2 5.7
2015-Mar-27 09:00N 56°41' W 147°10'0 0.0 1003.1 5.7
2015-Mar-27 07:00N 56°41' W 147°10'0 0.3 1002.8 5.7
2015-Mar-27 06:00N 56°41' W 147°10'1 0.7 1002.5 5.7
2015-Mar-27 04:00N 56°42' W 147°09'0 0.0 1001.7 5.7
2015-Mar-27 03:00N 56°42' W 147°09'0 0.0 1001.3 5.7
2015-Mar-27 02:00N 56°42' W 147°09'1 0.6 1001.0 5.7
2015-Mar-27 00:00N 56°41' W 147°10'1 0.9 1000.2 5.7
2015-Mar-26 23:00N 56°42' W 147°10'0 0.0 999.6 5.7
2015-Mar-26 22:00N 56°42' W 147°10'2 1.0 998.8 5.7
2015-Mar-26 20:00N 56°40' W 147°09'2 1.0 996.8 5.7
2015-Mar-26 18:00N 56°42' W 147°09'1 0.3 994.3 5.7
2015-Mar-26 15:00N 56°41' W 147°10'2 0.4 990.1 5.7
2015-Mar-26 10:00N 56°40' W 147°07'0 0.0 986.0 5.7
2015-Mar-26 09:00N 56°40' W 147°07'2 0.4 985.4 5.7
2015-Mar-26 05:00N 56°39' W 147°06'0 0.1 985.0 5.7
2015-Mar-26 00:00N 56°39' W 147°05'2 1.8 985.1 5.7
2015-Mar-25 23:00N 56°39' W 147°02'0 0.1 985.5 5.7
2015-Mar-25 20:00N 56°40' W 147°02'0 0.0 986.4 5.7
2015-Mar-25 19:00N 56°40' W 147°02'0 0.0 986.5 5.7
2015-Mar-25 18:00N 56°40' W 147°02'1 0.4 986.7 5.7
2015-Mar-25 16:00N 56°39' W 147°02'1 1.1 987.5 5.7
2015-Mar-25 15:00N 56°40' W 147°01'1 1.1 988.2 5.7
2015-Mar-25 14:00N 56°39' W 147°00'4 3.6 989.4 5.7
2015-Mar-25 13:00N 56°38' W 146°54'0 0.0 990.3 5.7
2015-Mar-25 11:00N 56°38' W 146°54'0 0.3 992.4 5.7
2015-Mar-25 10:00N 56°38' W 146°55'0 0.0 993.8 5.7
2015-Mar-25 07:00N 56°38' W 146°55'0 0.0 996.7 5.7
2015-Mar-25 06:00N 56°38' W 146°55'1 0.9 997.6 5.7
2015-Mar-25 05:00N 56°38' W 146°53'2 2.0 998.2 5.7
2015-Mar-25 04:00N 56°39' W 146°55'5 5.4 998.9 5.7
2015-Mar-25 03:00N 56°36' W 146°47'0 0.0 999.7 5.7
2015-Mar-25 01:00N 56°36' W 146°47'0 0.0 1001.3 5.7
2015-Mar-25 00:00N 56°36' W 146°47'3 1.3 1002.4 5.7
2015-Mar-24 22:00N 56°37' W 146°52'2 0.9 1004.2 5.7
2015-Mar-24 20:00N 56°37' W 146°49'1 0.4 1005.4 5.7
2015-Mar-24 17:00N 56°36' W 146°48'1 0.9 1006.3 5.7
2015-Mar-24 16:00N 56°37' W 146°48'1 0.6 1006.5 5.7
2015-Mar-24 15:00N 56°36' W 146°48'3 0.3 1006.8 5.7
2015-Mar-24 04:00N 56°35' W 146°42'1 0.2 1009.2 5.7
2015-Mar-23 19:00N 56°36' W 146°41'0 0.0 1010.3 5.6
2015-Mar-23 18:00N 56°36' W 146°41'0 0.0 1010.2 5.6
2015-Mar-23 17:00N 56°36' W 146°41'1 0.7 1010.2 5.6
2015-Mar-23 15:00N 56°35' W 146°39'4 0.4 1009.8 5.6
2015-Mar-23 06:00N 56°37' W 146°34'0 0.4 1011.2 5.6
2015-Mar-23 05:00N 56°37' W 146°34'   1011.0 5.6
Track history (hours):
 
Tides and Currents Weather Stations Pressure Air Temp Water Temp Dewpoint Dewpoint Depression Visibility Wind Speed Wind Dir Waves Ship Positions

Drifting buoy 46762

Last reported at 2015-Apr-02 05:00 UTC. Time now 2015-Apr-02 07:56 UTC.
Position N 57°10' W 149°47'.

Barometer 1001.1 mb
Water temperature 6.0 ° C

Date/timePositionNaut miles runAvg speedWind from/ knotsBaromVisibWave heightAir tempDewpointWater temp
2015-Apr-02 05:00N 57°10' W 149°47'4 1.3 1001.1 6.0
2015-Apr-02 02:00N 57°07' W 149°51'13 0.6 1000.1 6.0
2015-Apr-01 05:00N 56°55' W 149°43'0 0.2 1006.6 6.0
2015-Apr-01 04:00N 56°55' W 149°43'0 0.0 1006.4 6.0
2015-Apr-01 03:00N 56°55' W 149°43'3 1.1 1006.2 6.0
2015-Apr-01 00:00N 56°52' W 149°45'2 1.6 1006.0 6.0
2015-Mar-31 23:00N 56°52' W 149°42'2 1.7 1005.7 6.0
2015-Mar-31 22:00N 56°51' W 149°40'4 1.3 1005.2 6.0
2015-Mar-31 19:00N 56°50' W 149°33'0 0.3 1003.6 6.0
2015-Mar-31 18:00N 56°50' W 149°34'0 0.0 1003.2 6.0
2015-Mar-31 17:00N 56°50' W 149°34'4 1.2 1002.9 6.0
2015-Mar-31 14:00N 56°48' W 149°28'10 1.1 1002.3 6.0
2015-Mar-31 05:00N 56°44' W 149°11'0 0.1 1000.2 6.0
2015-Mar-31 04:00N 56°44' W 149°11'2 2.5 999.9 6.1
2015-Mar-31 03:00N 56°43' W 149°07'1 1.5 999.7 6.1
2015-Mar-31 02:00N 56°42' W 149°05'0 0.0 999.7 6.1
2015-Mar-31 01:00N 56°42' W 149°05'2 2.4 999.7 6.2
2015-Mar-31 00:00N 56°43' W 149°01'1 0.7 999.9 6.1
2015-Mar-30 23:00N 56°42' W 148°60'3 3.0 999.9 6.0
2015-Mar-30 22:00N 56°42' W 148°54'0 0.0 999.9 6.0
2015-Mar-30 21:00N 56°42' W 148°54'3 2.7 999.7 6.0
2015-Mar-30 20:00N 56°40' W 148°52'6 1.8 999.5 6.0
2015-Mar-30 17:00N 56°40' W 148°42'2 2.4 999.2 6.0
2015-Mar-30 16:00N 56°41' W 148°38'0 0.4 999.2 6.0
2015-Mar-30 15:00N 56°41' W 148°38'2 2.4 999.2 6.0
2015-Mar-30 14:00N 56°41' W 148°34'1 1.2 999.3 6.0
2015-Mar-30 13:00N 56°42' W 148°32'8 8.5 999.3 6.0
2015-Mar-30 12:00N 56°40' W 148°17'0 0.0 999.4 6.0
2015-Mar-30 11:00N 56°40' W 148°17'0 0.0 999.7 6.0
2015-Mar-30 08:00N 56°40' W 148°17'0 0.0 998.9 6.0
2015-Mar-30 07:00N 56°40' W 148°17'2 1.7 998.6 6.0
2015-Mar-30 06:00N 56°40' W 148°14'1 0.7 998.4 6.0
2015-Mar-30 05:00N 56°39' W 148°13'1 0.8 998.1 6.0
2015-Mar-30 04:00N 56°39' W 148°12'2 2.2 997.6 6.0
2015-Mar-30 03:00N 56°39' W 148°08'3 1.5 997.3 6.0
2015-Mar-30 01:00N 56°39' W 148°02'1 1.0 996.9 6.0
2015-Mar-30 00:00N 56°39' W 148°04'3 3.1 996.5 6.0
2015-Mar-29 23:00N 56°40' W 147°59'1 1.4 996.0 6.0
2015-Mar-29 22:00N 56°40' W 147°56'0 0.0 995.4 6.0
2015-Mar-29 21:00N 56°40' W 147°56'2 0.5 994.7 5.9
2015-Mar-29 17:00N 56°39' W 147°52'2 0.9 990.7 5.9
2015-Mar-29 15:00N 56°41' W 147°50'3 3.1 988.9 5.8
2015-Mar-29 14:00N 56°40' W 147°45'0 0.0 988.2 5.8
2015-Mar-29 13:00N 56°40' W 147°45'0 0.0 987.5 5.8
2015-Mar-29 12:00N 56°40' W 147°45'0 0.3 987.0 5.8
2015-Mar-29 11:00N 56°40' W 147°46'4 4.1 986.7 5.8
2015-Mar-29 10:00N 56°38' W 147°39'0 0.0 986.5 5.8
2015-Mar-29 08:00N 56°38' W 147°39'2 0.6 985.8 5.8
2015-Mar-29 05:00N 56°40' W 147°36'1 1.1 985.5 5.8
2015-Mar-29 04:00N 56°40' W 147°34'1 0.9 985.3 5.8
2015-Mar-29 03:00N 56°39' W 147°35'2 1.5 985.2 5.8
2015-Mar-29 02:00N 56°40' W 147°34'1 0.5 985.4 5.8
2015-Mar-29 00:00N 56°40' W 147°32'2 0.9 986.1 5.8
2015-Mar-28 22:00N 56°40' W 147°29'1 1.2 987.3 5.8
2015-Mar-28 21:00N 56°41' W 147°27'0 0.0 987.6 5.8
2015-Mar-28 20:00N 56°41' W 147°27'1 0.8 987.8 5.8
2015-Mar-28 19:00N 56°41' W 147°26'1 0.4 987.9 5.7
2015-Mar-28 17:00N 56°41' W 147°24'0 0.0 988.4 5.7
2015-Mar-28 16:00N 56°41' W 147°24'5 2.4 988.3 5.7
2015-Mar-28 14:00N 56°40' W 147°15'0 0.0 988.8 5.7
2015-Mar-28 13:00N 56°40' W 147°15'0 0.0 989.3 5.7
2015-Mar-28 11:00N 56°40' W 147°15'0 0.0 990.5 5.7
2015-Mar-28 10:00N 56°40' W 147°15'1 1.1 991.1 5.7
2015-Mar-28 09:00N 56°40' W 147°17'0 0.0 991.8 5.7
2015-Mar-28 07:00N 56°40' W 147°17'1 0.8 993.4 5.7
2015-Mar-28 06:00N 56°40' W 147°16'2 1.5 994.0 5.7
2015-Mar-28 05:00N 56°42' W 147°17'3 2.9 995.0 5.7
2015-Mar-28 04:00N 56°40' W 147°13'2 1.2 995.7 5.7
2015-Mar-28 02:00N 56°41' W 147°17'0 0.0 997.7 5.8
2015-Mar-28 01:00N 56°41' W 147°17'0 0.1 998.8 5.8
2015-Mar-28 00:00N 56°41' W 147°17'2 1.1 1000.0 5.8
2015-Mar-27 22:00N 56°42' W 147°13'1 1.4 1001.8 5.7
2015-Mar-27 21:00N 56°40' W 147°14'1 0.3 1002.1 5.7
2015-Mar-27 19:00N 56°40' W 147°13'2 0.8 1002.8 5.7
2015-Mar-27 17:00N 56°42' W 147°13'1 1.0 1002.9 5.7
2015-Mar-27 16:00N 56°41' W 147°11'1 0.3 1003.0 5.7
2015-Mar-27 14:00N 56°41' W 147°10'1 0.8 1003.0 5.7
2015-Mar-27 13:00N 56°41' W 147°12'0 0.0 1002.9 5.7
2015-Mar-27 12:00N 56°41' W 147°12'0 0.0 1003.0 5.7
2015-Mar-27 11:00N 56°41' W 147°12'1 1.1 1003.1 5.7
2015-Mar-27 10:00N 56°41' W 147°10'0 0.0 1003.2 5.7
2015-Mar-27 09:00N 56°41' W 147°10'0 0.0 1003.1 5.7
2015-Mar-27 07:00N 56°41' W 147°10'0 0.3 1002.8 5.7
2015-Mar-27 06:00N 56°41' W 147°10'1 0.7 1002.5 5.7
2015-Mar-27 04:00N 56°42' W 147°09'0 0.0 1001.7 5.7
2015-Mar-27 03:00N 56°42' W 147°09'0 0.0 1001.3 5.7
2015-Mar-27 02:00N 56°42' W 147°09'1 0.6 1001.0 5.7
2015-Mar-27 00:00N 56°41' W 147°10'1 0.9 1000.2 5.7
2015-Mar-26 23:00N 56°42' W 147°10'0 0.0 999.6 5.7
2015-Mar-26 22:00N 56°42' W 147°10'2 1.0 998.8 5.7
2015-Mar-26 20:00N 56°40' W 147°09'2 1.0 996.8 5.7
2015-Mar-26 18:00N 56°42' W 147°09'1 0.3 994.3 5.7
2015-Mar-26 15:00N 56°41' W 147°10'2 0.4 990.1 5.7
2015-Mar-26 10:00N 56°40' W 147°07'0 0.0 986.0 5.7
2015-Mar-26 09:00N 56°40' W 147°07'2 0.4 985.4 5.7
2015-Mar-26 05:00N 56°39' W 147°06'0 0.1 985.0 5.7
2015-Mar-26 00:00N 56°39' W 147°05'2 1.8 985.1 5.7
2015-Mar-25 23:00N 56°39' W 147°02'0 0.1 985.5 5.7
2015-Mar-25 20:00N 56°40' W 147°02'0 0.0 986.4 5.7
2015-Mar-25 19:00N 56°40' W 147°02'0 0.0 986.5 5.7
2015-Mar-25 18:00N 56°40' W 147°02'1 0.4 986.7 5.7
2015-Mar-25 16:00N 56°39' W 147°02'1 1.1 987.5 5.7
2015-Mar-25 15:00N 56°40' W 147°01'1 1.1 988.2 5.7
2015-Mar-25 14:00N 56°39' W 147°00'4 3.6 989.4 5.7
2015-Mar-25 13:00N 56°38' W 146°54'0 0.0 990.3 5.7
2015-Mar-25 11:00N 56°38' W 146°54'0 0.3 992.4 5.7
2015-Mar-25 10:00N 56°38' W 146°55'0 0.0 993.8 5.7
2015-Mar-25 07:00N 56°38' W 146°55'0 0.0 996.7 5.7
2015-Mar-25 06:00N 56°38' W 146°55'1 0.9 997.6 5.7
2015-Mar-25 05:00N 56°38' W 146°53'2 2.0 998.2 5.7
2015-Mar-25 04:00N 56°39' W 146°55'5 5.4 998.9 5.7
2015-Mar-25 03:00N 56°36' W 146°47'0 0.0 999.7 5.7
2015-Mar-25 01:00N 56°36' W 146°47'0 0.0 1001.3 5.7
2015-Mar-25 00:00N 56°36' W 146°47'3 1.3 1002.4 5.7
2015-Mar-24 22:00N 56°37' W 146°52'2 0.9 1004.2 5.7
2015-Mar-24 20:00N 56°37' W 146°49'1 0.4 1005.4 5.7
2015-Mar-24 17:00N 56°36' W 146°48'1 0.9 1006.3 5.7
2015-Mar-24 16:00N 56°37' W 146°48'1 0.6 1006.5 5.7
2015-Mar-24 15:00N 56°36' W 146°48'3 0.3 1006.8 5.7
2015-Mar-24 04:00N 56°35' W 146°42'1 0.2 1009.2 5.7
2015-Mar-23 19:00N 56°36' W 146°41'0 0.0 1010.3 5.6
2015-Mar-23 18:00N 56°36' W 146°41'0 0.0 1010.2 5.6
2015-Mar-23 17:00N 56°36' W 146°41'1 0.7 1010.2 5.6
2015-Mar-23 15:00N 56°35' W 146°39'4 0.4 1009.8 5.6
2015-Mar-23 06:00N 56°37' W 146°34'0 0.4 1011.2 5.6
2015-Mar-23 05:00N 56°37' W 146°34'   1011.0 5.6

Dump ship's entire track history